sensor_id;sensor_type;location;lat;lon;timestamp;pressure;altitude;pressure_sealevel;temperature;humidity
31005;BME280;17676;52.254;4.490;2023-11-21T00:01:56;101098.59;;;11.49;100.00
31005;BME280;17676;52.254;4.490;2023-11-21T00:04:22;101095.06;;;11.49;100.00
31005;BME280;17676;52.254;4.490;2023-11-21T00:06:47;101095.69;;;11.44;100.00
31005;BME280;17676;52.254;4.490;2023-11-21T00:09:14;101099.44;;;11.43;100.00
31005;BME280;17676;52.254;4.490;2023-11-21T00:11:41;101111.53;;;11.47;100.00
31005;BME280;17676;52.254;4.490;2023-11-21T00:14:07;101123.44;;;11.46;100.00
31005;BME280;17676;52.254;4.490;2023-11-21T00:16:33;101116.97;;;11.41;100.00
31005;BME280;17676;52.254;4.490;2023-11-21T00:18:59;101114.88;;;11.49;100.00
31005;BME280;17676;52.254;4.490;2023-11-21T00:21:25;101117.78;;;11.54;100.00
31005;BME280;17676;52.254;4.490;2023-11-21T00:23:50;101105.06;;;11.48;100.00
31005;BME280;17676;52.254;4.490;2023-11-21T00:26:16;101119.47;;;11.55;100.00
31005;BME280;17676;52.254;4.490;2023-11-21T00:28:42;101108.84;;;11.47;100.00
31005;BME280;17676;52.254;4.490;2023-11-21T00:31:07;101117.56;;;11.49;100.00
31005;BME280;17676;52.254;4.490;2023-11-21T00:33:33;101115.31;;;11.46;100.00
31005;BME280;17676;52.254;4.490;2023-11-21T00:35:59;101132.38;;;11.53;100.00
31005;BME280;17676;52.254;4.490;2023-11-21T00:38:24;101129.25;;;11.50;100.00
31005;BME280;17676;52.254;4.490;2023-11-21T00:40:50;101124.25;;;11.47;100.00
31005;BME280;17676;52.254;4.490;2023-11-21T00:43:16;101126.53;;;11.37;100.00
31005;BME280;17676;52.254;4.490;2023-11-21T00:45:42;101134.44;;;11.32;100.00
31005;BME280;17676;52.254;4.490;2023-11-21T00:48:08;101147.38;;;11.30;100.00
31005;BME280;17676;52.254;4.490;2023-11-21T00:50:33;101145.25;;;11.19;100.00
31005;BME280;17676;52.254;4.490;2023-11-21T00:52:59;101151.50;;;11.13;100.00
31005;BME280;17676;52.254;4.490;2023-11-21T00:55:24;101158.97;;;11.11;100.00
31005;BME280;17676;52.254;4.490;2023-11-21T00:57:50;101157.34;;;11.16;100.00
31005;BME280;17676;52.254;4.490;2023-11-21T01:00:16;101165.06;;;11.19;100.00
31005;BME280;17676;52.254;4.490;2023-11-21T01:02:45;101179.88;;;11.23;100.00
31005;BME280;17676;52.254;4.490;2023-11-21T01:05:10;101179.47;;;11.26;100.00
31005;BME280;17676;52.254;4.490;2023-11-21T01:07:36;101190.06;;;11.28;100.00
31005;BME280;17676;52.254;4.490;2023-11-21T01:10:03;101199.44;;;11.25;100.00
31005;BME280;17676;52.254;4.490;2023-11-21T01:12:31;101196.13;;;11.23;100.00
31005;BME280;17676;52.254;4.490;2023-11-21T01:14:56;101194.88;;;11.26;100.00
31005;BME280;17676;52.254;4.490;2023-11-21T01:17:25;101197.59;;;11.32;100.00
31005;BME280;17676;52.254;4.490;2023-11-21T01:19:51;101201.16;;;11.39;100.00
31005;BME280;17676;52.254;4.490;2023-11-21T01:22:17;101203.28;;;11.50;100.00
31005;BME280;17676;52.254;4.490;2023-11-21T01:24:47;101192.84;;;11.47;100.00
31005;BME280;17676;52.254;4.490;2023-11-21T01:27:13;101191.59;;;11.56;100.00
31005;BME280;17676;52.254;4.490;2023-11-21T01:29:38;101187.84;;;11.57;100.00
31005;BME280;17676;52.254;4.490;2023-11-21T01:32:05;101197.06;;;11.69;100.00
31005;BME280;17676;52.254;4.490;2023-11-21T01:34:32;101196.47;;;11.74;100.00
31005;BME280;17676;52.254;4.490;2023-11-21T01:36:58;101184.38;;;11.70;100.00
31005;BME280;17676;52.254;4.490;2023-11-21T01:39:25;101191.25;;;11.85;100.00
31005;BME280;17676;52.254;4.490;2023-11-21T01:41:52;101185.81;;;11.79;100.00
31005;BME280;17676;52.254;4.490;2023-11-21T01:44:18;101198.78;;;11.90;100.00
31005;BME280;17676;52.254;4.490;2023-11-21T01:46:45;101182.06;;;11.86;100.00
31005;BME280;17676;52.254;4.490;2023-11-21T01:49:12;101178.75;;;11.84;100.00
31005;BME280;17676;52.254;4.490;2023-11-21T01:54:05;101182.72;;;11.88;100.00
31005;BME280;17676;52.254;4.490;2023-11-21T01:56:31;101185.81;;;11.85;100.00
31005;BME280;17676;52.254;4.490;2023-11-21T01:58:57;101191.25;;;11.92;100.00
31005;BME280;17676;52.254;4.490;2023-11-21T02:01:23;101180.00;;;11.88;100.00
31005;BME280;17676;52.254;4.490;2023-11-21T02:03:48;101196.25;;;12.01;100.00
31005;BME280;17676;52.254;4.490;2023-11-21T02:06:14;101195.00;;;11.97;100.00
31005;BME280;17676;52.254;4.490;2023-11-21T02:08:40;101190.63;;;11.83;100.00
31005;BME280;17676;52.254;4.490;2023-11-21T02:11:07;101191.25;;;11.72;100.00
31005;BME280;17676;52.254;4.490;2023-11-21T02:13:37;101177.91;;;11.77;100.00
31005;BME280;17676;52.254;4.490;2023-11-21T02:16:03;101182.50;;;11.83;100.00
31005;BME280;17676;52.254;4.490;2023-11-21T02:18:30;101178.34;;;11.87;100.00
31005;BME280;17676;52.254;4.490;2023-11-21T02:20:56;101177.88;;;11.90;100.00
31005;BME280;17676;52.254;4.490;2023-11-21T02:23:22;101183.75;;;11.94;100.00
31005;BME280;17676;52.254;4.490;2023-11-21T02:25:48;101188.13;;;11.82;100.00
31005;BME280;17676;52.254;4.490;2023-11-21T02:28:14;101189.38;;;11.79;100.00
31005;BME280;17676;52.254;4.490;2023-11-21T02:30:43;101184.97;;;11.72;100.00
31005;BME280;17676;52.254;4.490;2023-11-21T02:33:09;101195.41;;;11.68;100.00
31005;BME280;17676;52.254;4.490;2023-11-21T02:35:38;101191.19;;;11.59;100.00
31005;BME280;17676;52.254;4.490;2023-11-21T02:38:03;101188.25;;;11.54;100.00
31005;BME280;17676;52.254;4.490;2023-11-21T02:40:29;101196.81;;;11.51;100.00
31005;BME280;17676;52.254;4.490;2023-11-21T02:42:55;101201.59;;;11.49;100.00
31005;BME280;17676;52.254;4.490;2023-11-21T02:45:21;101181.34;;;11.39;100.00
31005;BME280;17676;52.254;4.490;2023-11-21T02:47:47;101187.81;;;11.31;100.00
31005;BME280;17676;52.254;4.490;2023-11-21T02:50:14;101197.59;;;11.26;100.00
31005;BME280;17676;52.254;4.490;2023-11-21T02:52:40;101219.47;;;11.24;100.00
31005;BME280;17676;52.254;4.490;2023-11-21T02:55:06;101214.69;;;11.26;100.00
31005;BME280;17676;52.254;4.490;2023-11-21T02:57:34;101214.88;;;11.18;100.00
31005;BME280;17676;52.254;4.490;2023-11-21T03:00:00;101224.84;;;11.11;100.00
31005;BME280;17676;52.254;4.490;2023-11-21T03:02:26;101224.44;;;11.14;100.00
31005;BME280;17676;52.254;4.490;2023-11-21T03:04:51;101234.84;;;11.17;100.00
31005;BME280;17676;52.254;4.490;2023-11-21T03:07:18;101235.09;;;11.22;100.00
31005;BME280;17676;52.254;4.490;2023-11-21T03:09:47;101229.03;;;11.20;100.00
31005;BME280;17676;52.254;4.490;2023-11-21T03:12:12;101222.34;;;11.16;100.00
31005;BME280;17676;52.254;4.490;2023-11-21T03:14:39;101227.78;;;11.16;100.00
31005;BME280;17676;52.254;4.490;2023-11-21T03:17:05;101240.94;;;11.26;100.00
31005;BME280;17676;52.254;4.490;2023-11-21T03:19:31;101242.78;;;11.25;100.00
31005;BME280;17676;52.254;4.490;2023-11-21T03:21:56;101246.56;;;11.31;100.00
31005;BME280;17676;52.254;4.490;2023-11-21T03:24:22;101252.00;;;11.37;100.00
31005;BME280;17676;52.254;4.490;2023-11-21T03:26:50;101253.84;;;11.24;100.00
31005;BME280;17676;52.254;4.490;2023-11-21T03:29:16;101254.50;;;11.32;100.00
31005;BME280;17676;52.254;4.490;2023-11-21T03:31:42;101261.22;;;11.43;100.00
31005;BME280;17676;52.254;4.490;2023-11-21T03:34:14;101256.84;;;11.48;100.00
31005;BME280;17676;52.254;4.490;2023-11-21T03:36:40;101253.75;;;11.58;100.00
31005;BME280;17676;52.254;4.490;2023-11-21T03:39:05;101251.09;;;11.64;100.00
31005;BME280;17676;52.254;4.490;2023-11-21T03:41:31;101246.31;;;11.73;100.00
31005;BME280;17676;52.254;4.490;2023-11-21T03:43:57;101259.88;;;11.79;100.00
31005;BME280;17676;52.254;4.490;2023-11-21T03:46:23;101253.41;;;11.80;100.00
31005;BME280;17676;52.254;4.490;2023-11-21T03:48:48;101258.25;;;11.85;100.00
31005;BME280;17676;52.254;4.490;2023-11-21T03:51:14;101249.25;;;11.84;100.00
31005;BME280;17676;52.254;4.490;2023-11-21T03:53:39;101249.88;;;11.86;100.00
31005;BME280;17676;52.254;4.490;2023-11-21T03:56:05;101255.53;;;11.85;100.00
31005;BME280;17676;52.254;4.490;2023-11-21T03:58:31;101255.53;;;11.85;100.00
31005;BME280;17676;52.254;4.490;2023-11-21T04:00:56;101254.69;;;11.84;100.00
31005;BME280;17676;52.254;4.490;2023-11-21T04:03:22;101256.75;;;11.82;100.00
31005;BME280;17676;52.254;4.490;2023-11-21T04:05:47;101265.75;;;11.89;100.00
31005;BME280;17676;52.254;4.490;2023-11-21T04:08:13;101261.97;;;11.90;100.00
31005;BME280;17676;52.254;4.490;2023-11-21T04:10:39;101276.78;;;11.94;100.00
31005;BME280;17676;52.254;4.490;2023-11-21T04:13:05;101274.53;;;11.91;100.00
31005;BME280;17676;52.254;4.490;2023-11-21T04:15:31;101276.78;;;11.81;100.00
31005;BME280;17676;52.254;4.490;2023-11-21T04:17:57;101273.66;;;11.71;100.00
31005;BME280;17676;52.254;4.490;2023-11-21T04:20:23;101292.53;;;11.58;100.00
31005;BME280;17676;52.254;4.490;2023-11-21T04:22:48;101298.97;;;11.51;100.00
31005;BME280;17676;52.254;4.490;2023-11-21T04:25:15;101309.19;;;11.42;100.00
31005;BME280;17676;52.254;4.490;2023-11-21T04:27:41;101317.22;;;11.29;100.00
31005;BME280;17676;52.254;4.490;2023-11-21T04:30:09;101315.34;;;11.23;100.00
31005;BME280;17676;52.254;4.490;2023-11-21T04:32:35;101334.69;;;11.20;100.00
31005;BME280;17676;52.254;4.490;2023-11-21T04:35:01;101333.59;;;11.08;100.00
31005;BME280;17676;52.254;4.490;2023-11-21T04:37:27;101332.31;;;11.04;100.00
31005;BME280;17676;52.254;4.490;2023-11-21T04:39:53;101347.78;;;11.10;100.00
31005;BME280;17676;52.254;4.490;2023-11-21T04:42:19;101345.63;;;10.99;100.00
31005;BME280;17676;52.254;4.490;2023-11-21T04:44:44;101350.53;;;10.89;100.00
31005;BME280;17676;52.254;4.490;2023-11-21T04:47:10;101360.22;;;10.98;100.00
31005;BME280;17676;52.254;4.490;2023-11-21T04:49:36;101350.81;;;10.94;100.00
31005;BME280;17676;52.254;4.490;2023-11-21T04:52:02;101348.09;;;10.94;100.00
31005;BME280;17676;52.254;4.490;2023-11-21T04:54:30;101364.78;;;10.98;100.00
31005;BME280;17676;52.254;4.490;2023-11-21T04:56:56;101367.91;;;11.01;100.00
31005;BME280;17676;52.254;4.490;2023-11-21T04:59:22;101360.25;;;11.05;100.00
31005;BME280;17676;52.254;4.490;2023-11-21T05:01:50;101359.25;;;11.12;100.00
31005;BME280;17676;52.254;4.490;2023-11-21T05:04:16;101367.41;;;11.19;100.00
31005;BME280;17676;52.254;4.490;2023-11-21T05:06:41;101371.41;;;11.29;100.00
31005;BME280;17676;52.254;4.490;2023-11-21T05:09:07;101370.84;;;11.34;100.00
31005;BME280;17676;52.254;4.490;2023-11-21T05:11:37;101371.75;;;11.47;100.00
31005;BME280;17676;52.254;4.490;2023-11-21T05:14:03;101363.38;;;11.42;100.00
31005;BME280;17676;52.254;4.490;2023-11-21T05:16:32;101358.22;;;11.54;100.00
31005;BME280;17676;52.254;4.490;2023-11-21T05:19:00;101365.09;;;11.56;100.00
31005;BME280;17676;52.254;4.490;2023-11-21T05:21:30;101355.56;;;11.60;100.00
31005;BME280;17676;52.254;4.490;2023-11-21T05:23:58;101366.44;;;11.67;100.00
31005;BME280;17676;52.254;4.490;2023-11-21T05:26:24;101363.75;;;11.73;100.00
31005;BME280;17676;52.254;4.490;2023-11-21T05:28:50;101368.53;;;11.71;100.00
31005;BME280;17676;52.254;4.490;2023-11-21T05:31:16;101361.84;;;11.67;100.00
31005;BME280;17676;52.254;4.490;2023-11-21T05:33:42;101374.59;;;11.73;100.00
31005;BME280;17676;52.254;4.490;2023-11-21T05:36:07;101372.28;;;11.70;100.00
31005;BME280;17676;52.254;4.490;2023-11-21T05:38:34;101375.03;;;11.77;100.00
31005;BME280;17676;52.254;4.490;2023-11-21T05:41:01;101382.94;;;11.78;100.00
31005;BME280;17676;52.254;4.490;2023-11-21T05:43:26;101379.22;;;11.79;100.00
31005;BME280;17676;52.254;4.490;2023-11-21T05:45:53;101379.03;;;11.87;100.00
31005;BME280;17676;52.254;4.490;2023-11-21T05:48:19;101371.50;;;11.83;100.00
31005;BME280;17676;52.254;4.490;2023-11-21T05:50:46;101390.28;;;11.84;100.00
31005;BME280;17676;52.254;4.490;2023-11-21T05:53:13;101395.13;;;11.89;100.00
31005;BME280;17676;52.254;4.490;2023-11-21T05:55:41;101396.31;;;11.86;100.00
31005;BME280;17676;52.254;4.490;2023-11-21T05:58:06;101402.00;;;11.91;100.00
31005;BME280;17676;52.254;4.490;2023-11-21T06:00:32;101392.78;;;11.79;100.00
31005;BME280;17676;52.254;4.490;2023-11-21T06:03:01;101407.81;;;11.82;100.00
31005;BME280;17676;52.254;4.490;2023-11-21T06:05:27;101409.44;;;11.76;100.00
31005;BME280;17676;52.254;4.490;2023-11-21T06:07:54;101417.75;;;11.68;100.00
31005;BME280;17676;52.254;4.490;2023-11-21T06:10:22;101426.91;;;11.61;100.00
31005;BME280;17676;52.254;4.490;2023-11-21T06:12:49;101428.75;;;11.60;100.00
31005;BME280;17676;52.254;4.490;2023-11-21T06:15:14;101441.00;;;11.56;100.00
31005;BME280;17676;52.254;4.490;2023-11-21T06:17:41;101434.50;;;11.51;100.00
31005;BME280;17676;52.254;4.490;2023-11-21T06:20:08;101438.47;;;11.48;100.00
31005;BME280;17676;52.254;4.490;2023-11-21T06:22:38;101456.00;;;11.52;100.00
31005;BME280;17676;52.254;4.490;2023-11-21T06:25:05;101448.88;;;11.45;100.00
31005;BME280;17676;52.254;4.490;2023-11-21T06:27:36;101442.56;;;11.38;100.00
31005;BME280;17676;52.254;4.490;2023-11-21T06:30:02;101444.03;;;11.40;100.00
31005;BME280;17676;52.254;4.490;2023-11-21T06:32:28;101460.53;;;11.45;100.00
31005;BME280;17676;52.254;4.490;2023-11-21T06:34:58;101468.75;;;11.58;100.00
31005;BME280;17676;52.254;4.490;2023-11-21T06:37:27;101450.19;;;11.55;100.00
31005;BME280;17676;52.254;4.490;2023-11-21T06:39:53;101466.72;;;11.60;100.00
31005;BME280;17676;52.254;4.490;2023-11-21T06:42:19;101461.91;;;11.62;100.00
31005;BME280;17676;52.254;4.490;2023-11-21T06:44:46;101475.69;;;11.61;100.00
31005;BME280;17676;52.254;4.490;2023-11-21T06:47:12;101479.03;;;11.63;100.00
31005;BME280;17676;52.254;4.490;2023-11-21T06:49:37;101480.63;;;11.57;100.00
31005;BME280;17676;52.254;4.490;2023-11-21T06:52:04;101485.25;;;11.57;100.00
31005;BME280;17676;52.254;4.490;2023-11-21T06:54:32;101492.53;;;11.56;100.00
31005;BME280;17676;52.254;4.490;2023-11-21T06:56:58;101498.78;;;11.57;100.00
31005;BME280;17676;52.254;4.490;2023-11-21T06:59:24;101504.69;;;11.60;100.00
31005;BME280;17676;52.254;4.490;2023-11-21T07:05:29;101512.53;;;11.55;100.00
31005;BME280;17676;52.254;4.490;2023-11-21T07:07:55;101521.06;;;11.52;100.00
31005;BME280;17676;52.254;4.490;2023-11-21T07:10:20;101532.53;;;11.54;100.00
31005;BME280;17676;52.254;4.490;2023-11-21T07:12:46;101546.94;;;11.55;100.00
31005;BME280;17676;52.254;4.490;2023-11-21T07:15:12;101550.38;;;11.63;100.00
31005;BME280;17676;52.254;4.490;2023-11-21T07:17:38;101557.09;;;11.67;100.00
31005;BME280;17676;52.254;4.490;2023-11-21T07:20:03;101565.81;;;11.63;100.00
31005;BME280;17676;52.254;4.490;2023-11-21T07:22:29;101571.56;;;11.60;100.00
31005;BME280;17676;52.254;4.490;2023-11-21T07:24:58;101591.28;;;11.68;100.00
31005;BME280;17676;52.254;4.490;2023-11-21T07:27:24;101579.03;;;11.51;100.00
31005;BME280;17676;52.254;4.490;2023-11-21T07:29:49;101597.50;;;11.62;100.00
31005;BME280;17676;52.254;4.490;2023-11-21T07:32:15;101596.13;;;11.52;100.00
31005;BME280;17676;52.254;4.490;2023-11-21T07:34:41;101601.16;;;11.55;100.00
31005;BME280;17676;52.254;4.490;2023-11-21T07:37:09;101597.41;;;11.56;100.00
31005;BME280;17676;52.254;4.490;2023-11-21T07:39:35;101601.25;;;11.61;100.00
31005;BME280;17676;52.254;4.490;2023-11-21T07:42:02;101600.00;;;11.64;100.00
31005;BME280;17676;52.254;4.490;2023-11-21T07:44:28;101610.72;;;11.72;100.00
31005;BME280;17676;52.254;4.490;2023-11-21T07:46:54;101595.53;;;11.77;100.00
31005;BME280;17676;52.254;4.490;2023-11-21T07:49:25;101601.75;;;11.71;100.00
31005;BME280;17676;52.254;4.490;2023-11-21T07:51:52;101602.63;;;11.78;100.00
31005;BME280;17676;52.254;4.490;2023-11-21T07:54:19;101616.41;;;11.77;100.00
31005;BME280;17676;52.254;4.490;2023-11-21T07:56:44;101627.19;;;11.98;100.00
31005;BME280;17676;52.254;4.490;2023-11-21T07:59:10;101632.72;;;11.83;100.00
31005;BME280;17676;52.254;4.490;2023-11-21T08:01:37;101637.25;;;11.76;100.00
31005;BME280;17676;52.254;4.490;2023-11-21T08:04:03;101636.53;;;11.89;100.00
31005;BME280;17676;52.254;4.490;2023-11-21T08:06:34;101655.81;;;12.00;100.00
31005;BME280;17676;52.254;4.490;2023-11-21T08:09:02;101654.38;;;12.04;100.00
31005;BME280;17676;52.254;4.490;2023-11-21T08:11:28;101666.00;;;11.98;100.00
31005;BME280;17676;52.254;4.490;2023-11-21T08:13:56;101682.53;;;12.03;100.00
31005;BME280;17676;52.254;4.490;2023-11-21T08:16:22;101682.22;;;11.92;100.00
31005;BME280;17676;52.254;4.490;2023-11-21T08:18:49;101694.31;;;11.89;100.00
31005;BME280;17676;52.254;4.490;2023-11-21T08:21:19;101704.81;;;11.99;100.00
31005;BME280;17676;52.254;4.490;2023-11-21T08:23:44;101715.16;;;12.10;100.00
31005;BME280;17676;52.254;4.490;2023-11-21T08:26:15;101721.09;;;11.99;100.00
31005;BME280;17676;52.254;4.490;2023-11-21T08:28:45;101712.06;;;11.92;100.00
31005;BME280;17676;52.254;4.490;2023-11-21T08:31:13;101730.53;;;12.03;100.00
31005;BME280;17676;52.254;4.490;2023-11-21T08:33:38;101726.81;;;12.10;100.00
31005;BME280;17676;52.254;4.490;2023-11-21T08:36:10;101746.47;;;12.12;100.00
31005;BME280;17676;52.254;4.490;2023-11-21T08:38:38;101749.44;;;12.17;100.00
31005;BME280;17676;52.254;4.490;2023-11-21T08:41:07;101752.69;;;12.06;100.00
31005;BME280;17676;52.254;4.490;2023-11-21T08:43:36;101757.72;;;12.09;100.00
31005;BME280;17676;52.254;4.490;2023-11-21T08:46:06;101763.84;;;12.18;100.00
31005;BME280;17676;52.254;4.490;2023-11-21T08:48:32;101777.47;;;12.24;100.00
31005;BME280;17676;52.254;4.490;2023-11-21T08:50:57;101788.72;;;12.21;100.00
31005;BME280;17676;52.254;4.490;2023-11-21T08:53:23;101783.81;;;12.31;100.00
31005;BME280;17676;52.254;4.490;2023-11-21T08:55:49;101779.53;;;12.43;100.00
31005;BME280;17676;52.254;4.490;2023-11-21T08:58:15;101785.38;;;12.19;100.00
31005;BME280;17676;52.254;4.490;2023-11-21T09:00:41;101787.72;;;12.29;100.00
31005;BME280;17676;52.254;4.490;2023-11-21T09:03:06;101809.25;;;12.30;100.00
31005;BME280;17676;52.254;4.490;2023-11-21T09:05:37;101809.41;;;12.22;100.00
31005;BME280;17676;52.254;4.490;2023-11-21T09:08:04;101820.13;;;12.30;100.00
31005;BME280;17676;52.254;4.490;2023-11-21T09:10:29;101819.28;;;12.30;100.00
31005;BME280;17676;52.254;4.490;2023-11-21T09:12:55;101828.44;;;12.29;100.00
31005;BME280;17676;52.254;4.490;2023-11-21T09:15:21;101845.88;;;12.41;100.00
31005;BME280;17676;52.254;4.490;2023-11-21T09:17:47;101844.34;;;12.32;100.00
31005;BME280;17676;52.254;4.490;2023-11-21T09:20:13;101862.72;;;12.30;100.00
31005;BME280;17676;52.254;4.490;2023-11-21T09:22:40;101875.56;;;12.21;100.00
31005;BME280;17676;52.254;4.490;2023-11-21T09:25:06;101875.97;;;12.18;100.00
31005;BME280;17676;52.254;4.490;2023-11-21T09:27:34;101877.00;;;12.17;100.00
31005;BME280;17676;52.254;4.490;2023-11-21T09:30:01;101891.09;;;12.27;100.00
31005;BME280;17676;52.254;4.490;2023-11-21T09:32:27;101888.22;;;12.14;100.00
31005;BME280;17676;52.254;4.490;2023-11-21T09:34:52;101912.66;;;12.14;100.00
31005;BME280;17676;52.254;4.490;2023-11-21T09:37:20;101917.31;;;11.99;100.00
31005;BME280;17676;52.254;4.490;2023-11-21T09:39:46;101917.59;;;11.90;100.00
31005;BME280;17676;52.254;4.490;2023-11-21T09:42:22;101951.06;;;12.11;100.00
31005;BME280;17676;52.254;4.490;2023-11-21T09:44:54;101950.41;;;12.09;100.00
31005;BME280;17676;52.254;4.490;2023-11-21T09:47:26;101948.72;;;12.08;100.00
31005;BME280;17676;52.254;4.490;2023-11-21T09:49:54;101973.50;;;12.05;100.00
31005;BME280;17676;52.254;4.490;2023-11-21T09:52:25;101971.06;;;12.10;100.00
31005;BME280;17676;52.254;4.490;2023-11-21T09:54:52;101979.13;;;12.04;100.00
31005;BME280;17676;52.254;4.490;2023-11-21T09:57:28;101996.06;;;12.06;100.00
31005;BME280;17676;52.254;4.490;2023-11-21T09:59:54;102011.59;;;11.97;100.00
31005;BME280;17676;52.254;4.490;2023-11-21T10:02:27;102038.09;;;11.95;100.00
31005;BME280;17676;52.254;4.490;2023-11-21T10:04:58;102031.28;;;11.99;100.00
31005;BME280;17676;52.254;4.490;2023-11-21T10:07:28;102041.81;;;11.94;100.00
31005;BME280;17676;52.254;4.490;2023-11-21T10:09:57;102049.50;;;12.05;100.00
31005;BME280;17676;52.254;4.490;2023-11-21T10:12:25;102062.59;;;12.02;100.00
31005;BME280;17676;52.254;4.490;2023-11-21T10:14:53;102073.66;;;12.00;100.00
31005;BME280;17676;52.254;4.490;2023-11-21T10:17:23;102074.09;;;12.04;100.00
31005;BME280;17676;52.254;4.490;2023-11-21T10:19:56;102094.72;;;12.13;100.00
31005;BME280;17676;52.254;4.490;2023-11-21T10:22:22;102093.31;;;12.17;100.00
31005;BME280;17676;52.254;4.490;2023-11-21T10:24:49;102089.16;;;12.35;100.00
31005;BME280;17676;52.254;4.490;2023-11-21T10:27:15;102091.78;;;12.43;100.00
31005;BME280;17676;52.254;4.490;2023-11-21T10:29:42;102105.34;;;12.58;100.00
31005;BME280;17676;52.254;4.490;2023-11-21T10:32:08;102122.06;;;12.61;100.00
31005;BME280;17676;52.254;4.490;2023-11-21T10:34:35;102141.84;;;12.70;100.00
31005;BME280;17676;52.254;4.490;2023-11-21T10:37:11;102162.19;;;12.59;100.00
31005;BME280;17676;52.254;4.490;2023-11-21T10:39:37;102169.22;;;12.54;100.00
31005;BME280;17676;52.254;4.490;2023-11-21T10:42:04;102188.94;;;12.62;100.00
31005;BME280;17676;52.254;4.490;2023-11-21T10:44:34;102202.59;;;12.83;100.00
31005;BME280;17676;52.254;4.490;2023-11-21T10:47:00;102214.38;;;12.90;100.00
31005;BME280;17676;52.254;4.490;2023-11-21T10:49:27;102232.47;;;12.83;100.00
31005;BME280;17676;52.254;4.490;2023-11-21T10:51:55;102250.75;;;12.89;100.00
31005;BME280;17676;52.254;4.490;2023-11-21T10:54:23;102264.19;;;12.76;100.00
31005;BME280;17676;52.254;4.490;2023-11-21T10:56:50;102286.09;;;12.89;100.00
31005;BME280;17676;52.254;4.490;2023-11-21T10:59:17;102287.22;;;12.95;100.00
31005;BME280;17676;52.254;4.490;2023-11-21T11:01:44;102288.81;;;13.04;100.00
31005;BME280;17676;52.254;4.490;2023-11-21T11:04:11;102315.88;;;12.83;100.00
31005;BME280;17676;52.254;4.490;2023-11-21T11:06:43;102327.59;;;12.83;100.00
31005;BME280;17676;52.254;4.490;2023-11-21T11:09:13;102351.84;;;12.85;100.00
31005;BME280;17676;52.254;4.490;2023-11-21T11:11:40;102381.00;;;12.76;100.00
31005;BME280;17676;52.254;4.490;2023-11-21T11:14:09;102396.97;;;12.57;100.00
31005;BME280;17676;52.254;4.490;2023-11-21T11:16:38;102410.06;;;12.53;100.00
31005;BME280;17676;52.254;4.490;2023-11-21T11:19:07;102430.41;;;12.57;100.00
31005;BME280;17676;52.254;4.490;2023-11-21T11:30:01;102432.34;;;12.49;100.00
31005;BME280;17676;52.254;4.490;2023-11-21T11:32:53;102422.94;;;12.59;100.00
31005;BME280;17676;52.254;4.490;2023-11-21T11:38:14;102418.56;;;12.50;100.00
31005;BME280;17676;52.254;4.490;2023-11-21T11:40:45;102411.31;;;12.65;100.00
31005;BME280;17676;52.254;4.490;2023-11-21T11:43:21;102415.22;;;12.48;100.00
31005;BME280;17676;52.254;4.490;2023-11-21T11:45:49;102411.88;;;12.61;100.00
31005;BME280;17676;52.254;4.490;2023-11-21T11:48:18;102408.69;;;12.57;100.00
31005;BME280;17676;52.254;4.490;2023-11-21T11:51:03;102414.06;;;12.80;100.00
31005;BME280;17676;52.254;4.490;2023-11-21T11:53:35;102403.53;;;12.99;100.00
31005;BME280;17676;52.254;4.490;2023-11-21T11:56:23;102424.84;;;13.10;100.00
31005;BME280;17676;52.254;4.490;2023-11-21T11:58:55;102454.19;;;13.00;100.00
31005;BME280;17676;52.254;4.490;2023-11-21T12:01:22;102459.25;;;12.95;100.00
31005;BME280;17676;52.254;4.490;2023-11-21T12:06:45;102489.91;;;12.89;100.00
31005;BME280;17676;52.254;4.490;2023-11-21T12:09:21;102495.00;;;12.92;100.00
31005;BME280;17676;52.254;4.490;2023-11-21T12:11:51;102489.34;;;12.79;100.00
31005;BME280;17676;52.254;4.490;2023-11-21T12:14:17;102497.84;;;12.76;100.00
31005;BME280;17676;52.254;4.490;2023-11-21T12:16:43;102501.38;;;12.77;100.00
31005;BME280;17676;52.254;4.490;2023-11-21T12:19:12;102503.78;;;12.94;100.00
31005;BME280;17676;52.254;4.490;2023-11-21T12:21:38;102519.91;;;13.18;100.00
31005;BME280;17676;52.254;4.490;2023-11-21T12:24:09;102536.50;;;13.23;100.00
31005;BME280;17676;52.254;4.490;2023-11-21T12:26:35;102539.84;;;13.33;100.00
31005;BME280;17676;52.254;4.490;2023-11-21T12:29:04;102577.91;;;13.33;100.00
31005;BME280;17676;52.254;4.490;2023-11-21T12:31:33;102590.19;;;13.29;100.00
31005;BME280;17676;52.254;4.490;2023-11-21T12:34:00;102611.03;;;13.14;100.00
31005;BME280;17676;52.254;4.490;2023-11-21T12:36:25;102623.19;;;13.26;100.00
31005;BME280;17676;52.254;4.490;2023-11-21T12:38:51;102628.50;;;13.20;100.00
31005;BME280;17676;52.254;4.490;2023-11-21T12:41:17;102654.66;;;12.98;100.00
31005;BME280;17676;52.254;4.490;2023-11-21T12:43:46;102661.13;;;12.97;100.00
31005;BME280;17676;52.254;4.490;2023-11-21T12:46:14;102659.69;;;13.09;100.00
31005;BME280;17676;52.254;4.490;2023-11-21T12:48:44;102662.22;;;13.11;100.00
31005;BME280;17676;52.254;4.490;2023-11-21T12:51:13;102692.25;;;12.87;100.00
31005;BME280;17676;52.254;4.490;2023-11-21T12:53:44;102697.16;;;12.83;100.00
31005;BME280;17676;52.254;4.490;2023-11-21T12:56:11;102685.34;;;12.76;100.00
31005;BME280;17676;52.254;4.490;2023-11-21T12:58:38;102691.44;;;12.70;100.00
31005;BME280;17676;52.254;4.490;2023-11-21T13:01:07;102679.38;;;12.73;100.00